createdAt,value
2023-02-22T02:03:21.847Z,2.83
2023-02-22T04:13:19.763Z,2.84
2023-02-22T06:29:49.641Z,2.54
2023-02-22T06:32:20.078Z,2.50
2023-02-22T06:35:08.143Z,2.50
2023-02-22T06:37:38.693Z,2.50
2023-02-22T06:40:07.134Z,2.51
2023-02-22T06:42:35.508Z,2.52
2023-02-22T06:45:04.603Z,2.56
2023-02-22T06:47:42.014Z,2.57
2023-02-22T06:50:36.923Z,2.58
2023-02-22T06:53:05.291Z,2.56
2023-02-22T06:55:34.471Z,2.54
2023-02-22T06:58:03.520Z,2.54
2023-02-22T07:00:33.389Z,2.52
2023-02-22T07:03:01.874Z,2.51
2023-02-22T07:05:30.670Z,2.48
2023-02-22T07:08:07.706Z,2.51
2023-02-22T07:10:57.408Z,2.50
2023-02-22T07:13:30.469Z,2.51
2023-02-22T07:15:58.867Z,2.48
2023-02-22T07:18:28.958Z,2.50
2023-02-22T07:23:51.852Z,2.56
2023-02-22T07:26:25.357Z,2.50
2023-02-22T07:28:57.219Z,2.43
2023-02-22T07:31:25.510Z,2.35
2023-02-22T07:33:59.817Z,2.29
2023-02-22T07:36:28.067Z,2.29
2023-02-22T07:38:56.514Z,2.29
2023-02-22T07:41:28.019Z,2.32
2023-02-22T07:43:56.604Z,2.35
2023-02-22T07:46:24.916Z,2.37
2023-02-22T07:48:53.241Z,2.38
2023-02-22T07:51:21.671Z,2.39
2023-02-22T07:53:50.321Z,2.39
2023-02-22T07:56:18.697Z,2.40
2023-02-22T07:59:07.266Z,2.43
2023-02-22T08:01:37.383Z,2.47
2023-02-22T08:04:06.371Z,2.52
2023-02-22T08:06:34.863Z,2.54
2023-02-22T08:09:03.604Z,2.53
2023-02-22T08:11:33.565Z,2.56
2023-02-22T08:14:02.377Z,2.57
2023-02-22T08:16:34.306Z,2.59
2023-02-22T08:19:02.938Z,2.57
2023-02-22T08:21:34.534Z,2.57
2023-02-22T08:24:02.916Z,2.56
2023-02-22T08:26:31.151Z,2.58
2023-02-22T08:29:02.274Z,2.57
2023-02-22T08:31:30.914Z,2.56
2023-02-22T08:34:01.332Z,2.57
2023-02-22T08:36:32.000Z,2.58
2023-02-22T08:39:01.684Z,2.58
2023-02-22T08:41:31.200Z,2.59
2023-02-22T08:44:03.370Z,2.63
2023-02-22T08:46:33.004Z,2.64
2023-02-22T08:49:01.327Z,2.66
2023-02-22T08:51:34.722Z,2.68
2023-02-22T08:54:07.399Z,2.71
2023-02-22T08:56:35.799Z,2.73
2023-02-22T08:59:07.021Z,2.76
2023-02-22T09:01:39.016Z,2.73
2023-02-22T09:04:07.961Z,2.69
2023-02-22T09:06:40.685Z,2.64
2023-02-22T09:09:09.136Z,2.60
2023-02-22T09:11:37.681Z,2.57
2023-02-22T09:14:07.589Z,2.58
2023-02-22T09:17:00.424Z,2.60
2023-02-22T09:19:33.545Z,2.61
2023-02-22T09:22:02.793Z,2.65
2023-02-22T09:24:31.478Z,2.71
2023-02-22T09:27:04.586Z,2.77
2023-02-22T09:29:32.993Z,2.76
2023-02-22T09:32:04.530Z,2.76
2023-02-22T09:34:35.653Z,2.81
2023-02-22T09:37:08.807Z,2.87
2023-02-22T09:39:38.011Z,2.92
2023-02-22T09:42:35.980Z,2.93
2023-02-22T09:45:13.053Z,2.90
2023-02-22T09:47:50.941Z,2.86
2023-02-22T09:50:44.825Z,2.87
2023-02-22T09:53:32.596Z,2.91
2023-02-22T09:56:04.986Z,2.91
2023-02-22T09:58:37.598Z,2.87
2023-02-22T10:04:41.700Z,2.87
2023-02-22T10:07:45.156Z,2.90
2023-02-22T10:10:17.986Z,2.96
2023-02-22T10:13:14.896Z,2.99
2023-02-22T10:15:51.746Z,3.03
2023-02-22T10:18:57.909Z,3.09
2023-02-22T10:21:51.136Z,3.10
2023-02-22T10:29:19.685Z,3.14
2023-02-22T10:32:17.988Z,3.19
2023-02-22T16:52:21.058Z,2.16
2023-02-22T17:32:35.938Z,2.12
2023-02-22T17:35:04.337Z,2.04
2023-02-22T17:37:32.819Z,1.96
2023-02-22T17:40:01.556Z,1.89
2023-02-22T17:42:30.102Z,1.87
2023-02-22T17:44:58.384Z,1.88
2023-02-22T17:47:26.694Z,1.92
2023-02-22T17:49:58.026Z,1.95
2023-02-22T17:52:30.262Z,1.98
2023-02-22T17:54:58.632Z,1.97
2023-02-22T17:57:26.962Z,1.95
2023-02-22T17:59:57.792Z,1.94
2023-02-22T18:02:26.590Z,1.94
2023-02-22T18:04:55.267Z,1.94
2023-02-22T18:07:23.627Z,1.92
2023-02-22T18:09:52.566Z,1.88
2023-02-22T18:12:21.222Z,1.89
2023-02-22T18:17:38.354Z,1.88
2023-02-22T18:20:11.715Z,1.88
2023-02-22T18:22:43.279Z,1.89
2023-02-22T18:25:15.875Z,1.91
2023-02-22T18:27:44.063Z,1.93
2023-02-22T18:30:12.870Z,1.91
2023-02-22T18:32:41.856Z,1.91
2023-02-22T18:35:13.185Z,1.91
2023-02-22T18:37:42.079Z,1.89
2023-02-22T18:40:10.740Z,1.86
2023-02-22T18:42:39.776Z,1.83
2023-02-22T18:45:09.047Z,1.81
2023-02-22T18:47:42.474Z,1.84
2023-02-22T18:50:10.925Z,1.87
2023-02-22T18:52:46.064Z,1.87
2023-02-22T18:55:18.743Z,1.85
2023-02-22T18:57:47.328Z,1.82
2023-02-22T19:00:17.756Z,1.82
2023-02-22T19:02:49.615Z,1.82
2023-02-22T19:05:17.925Z,1.79
2023-02-22T19:07:47.193Z,1.69
2023-02-22T19:10:15.665Z,1.64
2023-02-22T19:13:01.452Z,1.64
2023-02-22T19:15:30.092Z,1.63
2023-02-22T19:17:59.348Z,1.56
2023-02-22T19:20:33.140Z,1.54
2023-02-22T19:23:01.748Z,1.49
2023-02-22T19:25:30.406Z,1.44
2023-02-22T19:27:58.888Z,1.43
2023-02-22T19:30:27.984Z,1.39
2023-02-22T19:32:57.295Z,1.32
2023-02-22T19:35:29.759Z,1.25
2023-02-22T19:37:58.360Z,1.20
2023-02-22T19:40:26.888Z,1.19
2023-02-22T19:42:58.882Z,1.15
2023-02-22T19:45:27.392Z,1.15
2023-02-22T19:47:57.706Z,1.14
2023-02-22T19:50:26.198Z,1.15
2023-02-22T19:52:57.523Z,1.16
2023-02-22T19:55:32.397Z,1.18
2023-02-22T19:58:00.666Z,1.19
2023-02-22T20:00:35.745Z,1.22
2023-02-22T20:03:09.490Z,1.24
2023-02-22T20:05:41.184Z,1.26
2023-02-22T20:08:12.789Z,1.29
2023-02-22T20:10:46.786Z,1.32
2023-02-22T20:13:17.146Z,1.32
2023-02-22T20:15:51.024Z,1.33
2023-02-22T20:18:21.881Z,1.34
2023-02-22T20:20:51.603Z,1.36
2023-02-22T20:23:19.936Z,1.37
2023-02-22T20:25:53.104Z,1.34
2023-02-22T20:28:22.280Z,1.33
2023-02-22T20:30:51.777Z,1.34
2023-02-22T20:33:21.649Z,1.35
2023-02-22T20:35:50.066Z,1.34
2023-02-22T20:38:19.423Z,1.35
2023-02-22T20:40:47.941Z,1.37
2023-02-22T20:43:16.685Z,1.36
2023-02-22T20:45:45.017Z,1.35
2023-02-22T20:48:14.286Z,1.32
2023-02-22T20:50:43.269Z,1.32
2023-02-22T20:53:15.522Z,1.32
2023-02-22T20:55:51.316Z,1.31
2023-02-22T20:58:23.076Z,1.30
2023-02-22T21:00:51.745Z,1.28
2023-02-22T21:03:21.120Z,1.27
2023-02-22T21:05:52.369Z,1.26
2023-02-22T21:08:20.620Z,1.26
2023-02-22T21:10:48.938Z,1.25
2023-02-22T21:13:17.499Z,1.24
2023-02-22T21:15:49.090Z,1.25
2023-02-22T21:18:17.848Z,1.28
2023-02-22T21:20:47.864Z,1.32
2023-02-22T21:23:16.960Z,1.37
2023-02-22T21:25:52.710Z,1.39
2023-02-22T21:28:21.082Z,1.40
2023-02-22T21:30:49.353Z,1.38
2023-02-22T21:33:17.841Z,1.36
2023-02-22T21:35:47.397Z,1.33
2023-02-22T21:38:15.743Z,1.30
2023-02-22T21:40:47.277Z,1.26
2023-02-22T21:43:16.910Z,1.24
2023-02-22T21:53:27.607Z,1.19
2023-02-22T21:55:56.083Z,1.18
2023-02-22T21:58:24.751Z,1.17
2023-02-22T22:00:53.047Z,1.16
2023-02-22T22:03:21.732Z,1.19
2023-02-22T22:05:51.552Z,1.21
2023-02-22T22:08:19.918Z,1.24
2023-02-22T22:10:57.795Z,1.26
2023-02-22T22:13:28.198Z,1.28
2023-02-22T22:15:56.480Z,1.28
2023-02-22T22:18:25.082Z,1.27
2023-02-22T22:20:53.989Z,1.23
2023-02-22T22:23:23.476Z,1.20
2023-02-22T22:25:52.789Z,1.16
2023-02-22T22:28:21.165Z,1.11
2023-02-22T22:30:49.579Z,1.08
2023-02-22T22:33:18.033Z,1.04
2023-02-22T22:35:46.504Z,1.01
2023-02-22T22:38:17.980Z,0.97
2023-02-22T22:40:53.299Z,0.91
2023-02-22T22:43:21.778Z,0.87
2023-02-22T22:45:52.864Z,0.79
2023-02-22T22:48:22.870Z,0.72
2023-02-22T22:51:02.660Z,0.67
2023-02-22T22:53:31.981Z,0.62
2023-02-22T22:56:17.746Z,0.58
2023-02-22T22:58:50.621Z,0.59
2023-02-22T23:01:20.615Z,0.58
2023-02-22T23:03:55.352Z,0.55
2023-02-22T23:06:30.950Z,0.52
2023-02-22T23:09:01.986Z,0.49
2023-02-22T23:11:33.786Z,0.48
2023-02-22T23:14:05.088Z,0.50
2023-02-22T23:16:36.572Z,0.51
2023-02-22T23:19:09.735Z,0.53
2023-02-22T23:21:39.128Z,0.57
2023-02-22T23:24:07.847Z,0.58
2023-02-22T23:26:37.215Z,0.62
2023-02-22T23:29:05.568Z,0.61
2023-02-22T23:31:34.086Z,0.55
2023-02-22T23:34:11.318Z,0.46
2023-02-22T23:36:49.168Z,0.38
2023-02-22T23:39:20.710Z,0.35
2023-02-22T23:41:56.566Z,0.35
2023-02-22T23:44:29.561Z,0.37
2023-02-22T23:46:59.895Z,0.37
2023-02-22T23:49:35.997Z,0.36
2023-02-22T23:52:08.209Z,0.35
2023-02-22T23:54:40.590Z,0.35
2023-02-22T23:57:09.650Z,0.37
2023-02-22T23:59:40.658Z,0.37
